createdAt,value
2022-12-28T00:00:00.278Z,59.02
2022-12-28T00:02:28.951Z,59.34
2022-12-28T00:04:57.241Z,59.47
2022-12-28T00:07:25.504Z,59.89
2022-12-28T00:09:53.780Z,61.36
2022-12-28T00:12:23.358Z,60.21
2022-12-28T00:14:51.749Z,61.33
2022-12-28T00:17:20.183Z,59.97
2022-12-28T00:19:48.870Z,60.71
2022-12-28T00:22:17.157Z,59.28
2022-12-28T00:24:45.326Z,59.04
2022-12-28T00:27:13.502Z,59.20
2022-12-28T00:29:43.580Z,59.19
2022-12-28T00:32:11.713Z,59.88
2022-12-28T00:34:40.178Z,59.69
2022-12-28T00:37:13.094Z,60.88
2022-12-28T00:39:42.362Z,62.45
2022-12-28T00:42:11.133Z,64.26
2022-12-28T00:44:39.815Z,63.88
2022-12-28T00:47:09.859Z,62.50
2022-12-28T00:49:40.778Z,63.26
2022-12-28T00:52:09.460Z,63.17
2022-12-28T00:54:37.926Z,63.74
2022-12-28T00:57:06.171Z,64.22
2022-12-28T00:59:35.278Z,65.32
2022-12-28T01:02:04.117Z,64.36
2022-12-28T01:04:33.677Z,65.34
2022-12-28T01:07:02.125Z,65.34
2022-12-28T01:09:32.921Z,65.42
2022-12-28T01:12:01.358Z,64.10
2022-12-28T01:14:29.671Z,64.58
2022-12-28T01:16:58.054Z,64.05
2022-12-28T01:19:26.388Z,64.68
2022-12-28T01:21:58.094Z,63.46
2022-12-28T01:24:26.765Z,64.93
2022-12-28T01:26:55.111Z,63.53
2022-12-28T01:29:23.427Z,63.13
2022-12-28T01:31:51.906Z,63.39
2022-12-28T01:34:20.140Z,62.52
2022-12-28T01:36:48.523Z,63.27
2022-12-28T01:39:18.712Z,62.28
2022-12-28T01:41:47.326Z,64.52
2022-12-28T01:44:42.632Z,62.34
2022-12-28T01:47:15.122Z,64.34
2022-12-28T01:49:49.622Z,64.27
2022-12-28T01:52:23.423Z,62.09
2022-12-28T01:54:57.629Z,61.66
2022-12-28T01:57:30.447Z,61.16
2022-12-28T02:00:02.998Z,62.41
2022-12-28T02:02:44.907Z,62.41
2022-12-28T02:05:14.903Z,62.26
2022-12-28T02:07:48.510Z,61.25
2022-12-28T02:10:42.903Z,62.07
2022-12-28T02:13:07.858Z,63.18
2022-12-28T02:15:36.530Z,63.13
2022-12-28T02:18:05.362Z,62.67
2022-12-28T02:20:42.397Z,63.71
2022-12-28T02:23:39.746Z,63.30
2022-12-28T02:26:41.777Z,65.01
2022-12-28T02:29:36.198Z,64.39
2022-12-28T02:32:24.915Z,62.83
2022-12-28T02:35:00.382Z,61.79
2022-12-28T02:37:33.634Z,62.81
2022-12-28T02:40:08.200Z,62.97
2022-12-28T02:42:40.744Z,63.24
2022-12-28T02:45:48.966Z,63.76
2022-12-28T02:48:35.060Z,63.65
2022-12-28T02:51:17.301Z,61.73
2022-12-28T02:54:10.518Z,60.93
2022-12-28T02:56:49.504Z,62.14
2022-12-28T02:59:34.597Z,61.15
2022-12-28T03:02:31.495Z,62.05
2022-12-28T03:05:12.637Z,61.72
2022-12-28T03:08:09.460Z,61.77
2022-12-28T03:10:47.064Z,63.49
2022-12-28T03:13:32.653Z,64.36
2022-12-28T03:16:07.990Z,63.29
2022-12-28T03:18:56.520Z,64.59
2022-12-28T03:21:50.016Z,66.47
2022-12-28T03:24:37.582Z,66.44
2022-12-28T03:27:30.250Z,67.20
2022-12-28T03:30:22.676Z,66.12
2022-12-28T03:32:52.583Z,66.05
2022-12-28T03:35:24.971Z,66.02
2022-12-28T03:38:01.919Z,65.23
2022-12-28T03:40:36.874Z,64.61
2022-12-28T03:43:30.194Z,64.26
2022-12-28T03:46:04.932Z,67.01
2022-12-28T03:48:34.833Z,64.78
2022-12-28T03:51:03.240Z,65.00
2022-12-28T03:53:40.493Z,65.40
2022-12-28T03:56:14.074Z,65.19
2022-12-28T03:58:44.761Z,65.42
2022-12-28T04:01:13.227Z,67.95
2022-12-28T04:03:43.373Z,64.83
2022-12-28T04:06:13.417Z,65.33
2022-12-28T04:08:43.451Z,64.40
2022-12-28T04:11:12.799Z,64.22
2022-12-28T04:13:42.606Z,65.26
2022-12-28T04:16:15.398Z,64.21
2022-12-28T04:18:45.499Z,64.76
2022-12-28T04:21:16.056Z,65.70
2022-12-28T04:23:47.805Z,66.41
2022-12-28T04:26:23.570Z,67.02
2022-12-28T04:28:54.449Z,66.88
2022-12-28T04:31:41.518Z,64.70
2022-12-28T04:34:15.686Z,65.17
2022-12-28T04:36:58.263Z,65.75
2022-12-28T04:39:27.971Z,64.79
2022-12-28T04:42:16.584Z,65.37
2022-12-28T04:44:44.656Z,65.43
2022-12-28T04:47:13.515Z,64.73
2022-12-28T04:49:42.013Z,64.38
2022-12-28T04:52:10.216Z,65.38
2022-12-28T04:54:39.777Z,64.41
2022-12-28T04:57:08.140Z,65.21
2022-12-28T04:59:36.621Z,65.30
2022-12-28T05:02:04.938Z,66.38
2022-12-28T05:04:33.257Z,66.82
2022-12-28T05:07:01.501Z,65.68
2022-12-28T05:09:29.893Z,66.02
2022-12-28T05:12:00.024Z,65.96
2022-12-28T05:14:33.605Z,65.76
2022-12-28T05:17:05.301Z,66.08
2022-12-28T05:19:33.786Z,65.71
2022-12-28T05:22:02.056Z,66.09
2022-12-28T05:24:30.474Z,65.08
2022-12-28T05:27:01.796Z,63.92
2022-12-28T05:29:30.252Z,63.88
2022-12-28T05:31:58.620Z,64.85
2022-12-28T05:34:27.161Z,64.26
2022-12-28T05:36:55.618Z,64.17
2022-12-28T05:39:24.342Z,64.54
2022-12-28T05:41:52.674Z,64.16
2022-12-28T05:44:22.279Z,64.84
2022-12-28T05:46:51.015Z,63.34
2022-12-28T05:49:20.977Z,62.80
2022-12-28T05:51:51.756Z,63.59
2022-12-28T05:54:20.312Z,62.91
2022-12-28T05:56:51.669Z,61.61
2022-12-28T05:59:19.949Z,62.68
2022-12-28T06:01:49.688Z,62.31
2022-12-28T06:04:20.308Z,64.10
2022-12-28T06:06:49.532Z,64.92
2022-12-28T06:09:17.847Z,65.03
2022-12-28T06:11:46.808Z,65.00
2022-12-28T06:14:15.091Z,65.21
2022-12-28T06:16:44.264Z,66.08
2022-12-28T06:19:15.632Z,66.13
2022-12-28T06:21:44.412Z,65.52
2022-12-28T06:24:13.930Z,65.43
2022-12-28T06:26:42.995Z,66.23
2022-12-28T06:29:12.230Z,65.70
2022-12-28T06:31:42.569Z,65.13
2022-12-28T06:34:11.633Z,65.76
2022-12-28T06:36:42.797Z,66.15
2022-12-28T06:39:13.395Z,65.14
2022-12-28T06:41:42.624Z,64.40
2022-12-28T06:44:12.750Z,64.76
2022-12-28T06:46:42.054Z,65.55
2022-12-28T06:49:10.392Z,64.87
2022-12-28T06:51:42.357Z,66.95
2022-12-28T06:54:11.328Z,66.62
2022-12-28T06:56:40.444Z,66.30
2022-12-28T06:59:09.878Z,66.12
2022-12-28T07:01:40.220Z,65.96
2022-12-28T07:04:10.214Z,65.85
2022-12-28T07:06:40.717Z,65.18
2022-12-28T07:09:13.676Z,65.24
2022-12-28T07:11:42.857Z,66.38
2022-12-28T07:14:12.236Z,65.55
2022-12-28T07:19:07.846Z,65.13
2022-12-28T07:21:39.262Z,65.53
2022-12-28T07:24:09.214Z,65.51
2022-12-28T07:26:39.752Z,66.68
2022-12-28T07:29:09.556Z,65.85
2022-12-28T07:31:45.306Z,65.73
2022-12-28T07:34:16.312Z,65.51
2022-12-28T07:36:45.034Z,65.33
2022-12-28T07:39:13.658Z,65.53
2022-12-28T07:41:43.501Z,65.54
2022-12-28T07:44:11.820Z,63.41
2022-12-28T07:46:40.781Z,63.45
2022-12-28T07:49:09.871Z,62.28
2022-12-28T07:51:39.886Z,60.83
2022-12-28T07:54:09.377Z,56.07
2022-12-28T07:59:08.122Z,51.36
2022-12-28T08:01:38.319Z,49.25
2022-12-28T08:04:09.303Z,50.82
2022-12-28T08:06:40.008Z,49.41
2022-12-28T08:09:09.887Z,49.62
2022-12-28T08:11:40.522Z,49.67
2022-12-28T08:14:11.150Z,52.79
2022-12-28T08:16:41.331Z,60.14
2022-12-28T08:19:11.193Z,61.58
2022-12-28T08:21:41.466Z,61.43
2022-12-28T08:24:14.095Z,61.98
2022-12-28T08:26:44.242Z,61.37
2022-12-28T08:29:17.158Z,62.77
2022-12-28T08:31:46.879Z,63.45
2022-12-28T08:34:17.277Z,63.16
2022-12-28T08:36:46.138Z,63.63
2022-12-28T08:39:15.325Z,64.09
2022-12-28T08:41:44.290Z,64.33
2022-12-28T08:44:14.030Z,62.72
2022-12-28T08:46:42.535Z,62.69
2022-12-28T08:49:11.172Z,61.43
2022-12-28T08:51:42.233Z,62.49
2022-12-28T08:54:12.084Z,63.07
2022-12-28T08:56:43.715Z,60.66
2022-12-28T08:59:16.060Z,62.46
2022-12-28T09:01:45.177Z,62.93
2022-12-28T09:04:16.111Z,62.90
2022-12-28T09:06:44.580Z,63.17
2022-12-28T09:09:15.130Z,62.00
2022-12-28T09:11:44.314Z,63.47
2022-12-28T09:14:22.515Z,62.38
2022-12-28T09:16:53.700Z,62.03
2022-12-28T09:19:22.929Z,61.37
2022-12-28T09:21:53.412Z,59.76
2022-12-28T09:24:22.211Z,59.62
2022-12-28T09:26:53.072Z,60.47
2022-12-28T09:29:23.416Z,59.63
2022-12-28T09:31:52.547Z,59.57
2022-12-28T09:34:37.784Z,58.79
2022-12-28T09:37:07.547Z,59.63
2022-12-28T09:39:36.031Z,61.14
2022-12-28T09:42:07.973Z,59.16
2022-12-28T09:44:57.053Z,59.21
2022-12-28T09:47:39.593Z,60.03
2022-12-28T09:50:32.132Z,59.82
2022-12-28T09:53:24.539Z,60.62
2022-12-28T09:56:01.450Z,60.82
2022-12-28T09:58:33.203Z,61.66
2022-12-28T10:01:05.225Z,61.84
2022-12-28T10:03:37.977Z,61.10
2022-12-28T10:06:12.689Z,61.63
2022-12-28T10:08:45.680Z,60.56
2022-12-28T10:11:19.645Z,62.54
2022-12-28T10:13:55.286Z,60.54
2022-12-28T10:16:29.630Z,60.91
2022-12-28T10:18:58.675Z,61.90
2022-12-28T10:21:33.197Z,62.23
2022-12-28T10:24:31.224Z,60.95
2022-12-28T10:26:57.060Z,59.05
2022-12-28T10:29:27.290Z,57.94
2022-12-28T10:32:12.768Z,56.92
2022-12-28T10:34:55.732Z,56.77
2022-12-28T10:37:26.465Z,58.37
2022-12-28T10:39:57.901Z,57.64
2022-12-28T10:42:30.825Z,56.42
2022-12-28T10:45:03.744Z,54.99
2022-12-28T10:47:37.330Z,55.97
2022-12-28T10:52:59.522Z,57.79
2022-12-28T10:55:30.056Z,57.92
2022-12-28T11:01:08.514Z,59.18
2022-12-28T11:03:22.025Z,59.46
2022-12-28T11:03:44.936Z,58.40
2022-12-28T11:06:19.879Z,58.07
2022-12-28T11:09:04.957Z,58.14
2022-12-28T11:11:36.669Z,57.99
2022-12-28T11:14:10.875Z,57.25
2022-12-28T11:16:39.835Z,57.51
2022-12-28T11:19:10.228Z,57.74
2022-12-28T11:21:38.681Z,57.23
2022-12-28T11:24:08.249Z,57.14
2022-12-28T11:26:44.367Z,55.93
2022-12-28T11:29:15.556Z,57.48
2022-12-28T11:31:48.910Z,57.01
2022-12-28T11:34:22.087Z,57.73
2022-12-28T11:36:51.004Z,58.42
2022-12-28T11:39:45.404Z,58.42
2022-12-28T11:42:39.582Z,59.00
2022-12-28T11:45:14.856Z,58.36
2022-12-28T11:47:43.898Z,58.86
2022-12-28T11:50:51.020Z,59.18
2022-12-28T11:53:44.395Z,56.82
2022-12-28T11:56:13.723Z,55.39
2022-12-28T11:59:01.863Z,56.58
2022-12-28T12:01:54.279Z,56.55
2022-12-28T12:04:46.321Z,58.64
2022-12-28T12:07:31.232Z,61.40
2022-12-28T12:10:30.155Z,58.89
2022-12-28T12:12:59.110Z,59.63
2022-12-28T12:15:39.077Z,58.61
2022-12-28T12:18:15.385Z,57.81
2022-12-28T12:20:51.727Z,58.29
2022-12-28T12:23:44.392Z,60.22
2022-12-28T12:26:27.795Z,57.57
2022-12-28T12:29:00.060Z,57.39
2022-12-28T12:31:32.775Z,58.48
2022-12-28T12:34:14.533Z,58.26
2022-12-28T12:37:12.102Z,58.64
2022-12-28T12:39:56.644Z,58.00
2022-12-28T12:42:35.566Z,55.94
2022-12-28T12:45:17.986Z,57.68
2022-12-28T12:48:04.216Z,58.48
2022-12-28T12:50:54.761Z,55.74
2022-12-28T12:53:37.995Z,57.90
2022-12-28T12:56:20.245Z,59.27
2022-12-28T12:59:01.391Z,59.71
2022-12-28T13:01:38.799Z,60.09
2022-12-28T13:04:09.804Z,60.17
2022-12-28T13:06:41.734Z,60.74
2022-12-28T13:09:16.860Z,58.55
2022-12-28T13:11:47.228Z,58.32
2022-12-28T13:14:21.047Z,60.58
2022-12-28T13:16:51.371Z,58.75
2022-12-28T13:19:23.387Z,59.07
2022-12-28T13:21:53.437Z,60.25
2022-12-28T13:24:23.522Z,59.36
2022-12-28T13:26:56.932Z,60.13
2022-12-28T13:29:27.416Z,61.37
2022-12-28T13:31:56.078Z,61.70
2022-12-28T13:34:26.766Z,61.15
2022-12-28T13:36:58.667Z,60.53
2022-12-28T13:39:28.614Z,60.83
2022-12-28T13:42:00.551Z,60.93
2022-12-28T13:44:36.063Z,61.53
2022-12-28T13:47:10.880Z,61.75
2022-12-28T13:49:45.375Z,60.19
2022-12-28T13:52:19.535Z,61.92
2022-12-28T13:54:52.500Z,60.09
2022-12-28T14:00:18.454Z,61.32
2022-12-28T14:02:48.462Z,60.00
2022-12-28T14:05:18.696Z,59.98
2022-12-28T14:07:48.345Z,60.87
2022-12-28T14:10:18.014Z,61.21
2022-12-28T14:12:48.803Z,61.06
2022-12-28T14:15:18.420Z,60.67
2022-12-28T14:17:48.698Z,61.83
2022-12-28T14:20:18.095Z,60.45
2022-12-28T14:22:46.853Z,61.56
2022-12-28T14:25:17.974Z,61.10
2022-12-28T14:27:57.474Z,62.12
2022-12-28T14:30:28.934Z,59.99
2022-12-28T14:32:59.576Z,58.66
2022-12-28T14:35:30.067Z,61.48
2022-12-28T14:38:01.664Z,60.86
2022-12-28T14:40:33.532Z,60.40
2022-12-28T14:43:11.739Z,60.97
2022-12-28T14:46:05.321Z,59.96
2022-12-28T14:48:37.710Z,57.51
2022-12-28T14:51:24.524Z,59.91
2022-12-28T14:54:17.425Z,60.19
2022-12-28T14:56:49.546Z,59.13
2022-12-28T14:59:25.352Z,61.49
2022-12-28T15:01:54.308Z,60.30
2022-12-28T15:04:36.732Z,58.94
2022-12-28T15:07:05.733Z,58.51
2022-12-28T15:09:34.444Z,58.82
2022-12-28T15:12:11.136Z,59.30
2022-12-28T15:14:41.000Z,58.91
2022-12-28T15:17:10.861Z,59.61
2022-12-28T15:19:39.715Z,59.66
2022-12-28T15:22:08.295Z,58.92
2022-12-28T15:24:36.756Z,58.20
2022-12-28T15:27:05.552Z,57.69
2022-12-28T15:32:23.821Z,58.94
2022-12-28T15:34:52.305Z,58.41
2022-12-28T15:37:20.813Z,57.03
2022-12-28T15:39:49.651Z,57.70
2022-12-28T15:42:18.293Z,56.77
2022-12-28T15:44:48.751Z,58.26
2022-12-28T15:47:17.043Z,57.98
2022-12-28T15:49:47.069Z,56.95
2022-12-28T15:52:15.247Z,59.23
2022-12-28T15:54:47.220Z,58.71
2022-12-28T15:57:16.293Z,57.70
2022-12-28T15:59:44.723Z,57.93
2022-12-28T16:02:13.460Z,58.67
2022-12-28T16:04:42.408Z,58.73
2022-12-28T16:07:11.936Z,57.09
2022-12-28T16:09:40.601Z,56.40
2022-12-28T16:12:09.063Z,57.62
2022-12-28T16:14:37.204Z,57.82
2022-12-28T16:17:05.887Z,57.59
2022-12-28T16:19:34.400Z,60.71
2022-12-28T16:22:03.147Z,59.64
2022-12-28T16:24:33.257Z,59.09
2022-12-28T16:27:01.562Z,59.79
2022-12-28T16:29:29.744Z,60.54
2022-12-28T16:32:00.270Z,59.25
2022-12-28T16:34:29.176Z,60.60
2022-12-28T16:36:59.607Z,60.28
2022-12-28T16:39:29.958Z,58.08
2022-12-28T16:41:59.797Z,58.48
2022-12-28T16:44:29.615Z,60.27
2022-12-28T16:46:59.797Z,57.82
2022-12-28T16:49:29.692Z,58.42
2022-12-28T16:51:58.418Z,60.21
2022-12-28T16:54:28.077Z,59.12
2022-12-28T16:56:57.553Z,59.77
2022-12-28T16:59:29.456Z,58.67
2022-12-28T17:01:59.485Z,59.29
2022-12-28T17:04:28.506Z,58.91
2022-12-28T17:06:56.698Z,59.58
2022-12-28T17:09:25.348Z,60.24
2022-12-28T17:11:53.857Z,58.84
2022-12-28T17:14:36.790Z,58.10
2022-12-28T17:17:07.809Z,59.83
2022-12-28T17:19:36.761Z,59.14
2022-12-28T17:22:05.802Z,58.63
2022-12-28T17:24:34.803Z,57.70
2022-12-28T17:27:07.843Z,57.23
2022-12-28T17:29:38.703Z,58.60
2022-12-28T17:32:08.992Z,58.18
2022-12-28T17:34:37.852Z,60.12
2022-12-28T17:37:06.407Z,59.57
2022-12-28T17:39:40.392Z,61.18
2022-12-28T17:42:10.351Z,60.22
2022-12-28T17:44:38.667Z,61.92
2022-12-28T17:47:08.715Z,61.33
2022-12-28T17:49:37.000Z,61.02
2022-12-28T17:52:05.632Z,62.68
2022-12-28T17:54:34.610Z,61.26
2022-12-28T17:57:03.146Z,61.66
2022-12-28T17:59:31.924Z,61.80
2022-12-28T18:02:02.037Z,61.20
2022-12-28T18:04:32.461Z,60.76
2022-12-28T18:07:00.848Z,60.40
2022-12-28T18:09:28.965Z,62.03
2022-12-28T18:11:57.687Z,61.38
2022-12-28T18:14:26.265Z,61.51
2022-12-28T18:16:55.455Z,59.58
2022-12-28T18:19:23.753Z,58.58
2022-12-28T18:21:53.947Z,58.99
2022-12-28T18:24:22.448Z,57.83
2022-12-28T18:26:51.078Z,60.08
2022-12-28T18:29:19.603Z,59.09
2022-12-28T18:31:49.213Z,60.38
2022-12-28T18:34:18.274Z,59.18
2022-12-28T18:36:46.923Z,59.64
2022-12-28T18:39:17.002Z,60.75
2022-12-28T18:41:45.269Z,59.99
2022-12-28T18:44:13.404Z,60.48
2022-12-28T18:46:41.726Z,58.57
2022-12-28T18:49:10.275Z,58.60
2022-12-28T18:51:38.992Z,59.52
2022-12-28T18:54:07.382Z,58.75
2022-12-28T18:56:37.397Z,58.04
2022-12-28T18:59:05.526Z,58.04
2022-12-28T19:04:22.568Z,57.04
2022-12-28T19:06:51.269Z,57.58
2022-12-28T19:09:19.577Z,57.51
2022-12-28T19:11:49.117Z,56.92
2022-12-28T19:14:17.767Z,57.55
2022-12-28T19:16:46.324Z,57.96
2022-12-28T19:19:17.148Z,57.15
2022-12-28T19:21:45.654Z,57.68
2022-12-28T19:24:15.946Z,57.90
2022-12-28T19:26:45.265Z,58.61
2022-12-28T19:29:16.318Z,59.42
2022-12-28T19:31:45.096Z,58.80
2022-12-28T19:34:13.658Z,58.47
2022-12-28T19:36:42.289Z,57.63
2022-12-28T19:39:10.534Z,57.71
2022-12-28T19:41:38.898Z,57.33
2022-12-28T19:44:08.013Z,58.86
2022-12-28T19:46:37.722Z,59.08
2022-12-28T19:49:06.034Z,58.11
2022-12-28T19:51:35.167Z,58.86
2022-12-28T19:54:03.384Z,57.54
2022-12-28T19:56:32.156Z,58.25
2022-12-28T19:59:06.480Z,57.67
2022-12-28T20:01:39.387Z,58.71
2022-12-28T20:04:13.302Z,60.70
2022-12-28T20:06:43.807Z,60.20
2022-12-28T20:09:13.056Z,59.87
2022-12-28T20:11:42.090Z,61.86
2022-12-28T20:14:13.688Z,61.63
2022-12-28T20:16:44.511Z,61.17
2022-12-28T20:19:14.077Z,60.82
2022-12-28T20:21:42.789Z,61.21
2022-12-28T20:24:13.755Z,59.79
2022-12-28T20:26:42.378Z,59.11
2022-12-28T20:29:11.079Z,61.18
2022-12-28T20:31:39.682Z,59.28
2022-12-28T20:34:09.439Z,61.20
2022-12-28T20:36:37.821Z,62.14
2022-12-28T20:39:07.573Z,62.34
2022-12-28T20:41:53.844Z,63.03
2022-12-28T20:44:25.944Z,62.68
2022-12-28T20:46:55.343Z,62.29
2022-12-28T20:49:26.797Z,62.86
2022-12-28T20:51:55.573Z,62.63
2022-12-28T20:54:24.056Z,62.09
2022-12-28T20:56:55.864Z,61.88
2022-12-28T20:59:26.212Z,61.09
2022-12-28T21:01:55.138Z,60.91
2022-12-28T21:04:26.603Z,62.00
2022-12-28T21:06:55.560Z,61.84
2022-12-28T21:09:24.215Z,62.08
2022-12-28T21:11:52.408Z,61.88
2022-12-28T21:14:20.775Z,62.76
2022-12-28T21:16:49.611Z,61.53
2022-12-28T21:19:18.605Z,61.31
2022-12-28T21:21:49.808Z,60.86
2022-12-28T21:24:18.076Z,61.19
2022-12-28T21:26:46.371Z,60.57
2022-12-28T21:29:16.838Z,61.22
2022-12-28T21:31:48.771Z,61.38
2022-12-28T21:34:16.987Z,61.75
2022-12-28T21:36:45.283Z,62.68
2022-12-28T21:39:15.310Z,62.21
2022-12-28T21:41:49.645Z,61.41
2022-12-28T21:44:21.059Z,60.95
2022-12-28T21:46:52.254Z,61.53
2022-12-28T21:49:21.219Z,61.20
2022-12-28T21:51:50.432Z,61.21
2022-12-28T21:54:22.331Z,61.33
2022-12-28T21:56:52.752Z,60.74
2022-12-28T21:59:22.532Z,61.55
2022-12-28T22:02:08.969Z,61.12
2022-12-28T22:05:00.408Z,60.93
2022-12-28T22:07:31.018Z,61.28
2022-12-28T22:10:18.453Z,60.15
2022-12-28T22:12:46.845Z,61.01
2022-12-28T22:15:34.675Z,59.84
2022-12-28T22:18:05.891Z,59.67
2022-12-28T22:20:36.217Z,60.67
2022-12-28T22:23:04.944Z,60.49
2022-12-28T22:25:35.846Z,60.73
2022-12-28T22:28:04.759Z,60.92
2022-12-28T22:30:34.944Z,60.59
2022-12-28T22:33:03.185Z,60.75
2022-12-28T22:35:31.321Z,60.15
2022-12-28T22:38:00.391Z,61.90
2022-12-28T22:40:29.468Z,60.85
2022-12-28T22:42:59.558Z,61.49
2022-12-28T22:45:28.356Z,62.01
2022-12-28T22:47:59.626Z,62.32
2022-12-28T22:50:29.585Z,61.50
2022-12-28T22:52:58.560Z,62.67
2022-12-28T22:55:27.326Z,62.83
2022-12-28T22:57:55.788Z,62.43
2022-12-28T23:00:25.945Z,62.52
2022-12-28T23:02:54.536Z,63.14
2022-12-28T23:05:23.091Z,61.32
2022-12-28T23:07:52.077Z,62.89
2022-12-28T23:10:20.673Z,61.35
2022-12-28T23:12:49.373Z,62.53
2022-12-28T23:15:19.906Z,61.50
2022-12-28T23:18:10.657Z,62.67
2022-12-28T23:20:53.781Z,61.87
2022-12-28T23:23:39.650Z,61.37
2022-12-28T23:26:28.190Z,62.39
2022-12-28T23:28:56.422Z,61.46
2022-12-28T23:31:24.802Z,61.21
2022-12-28T23:33:55.110Z,61.93
2022-12-28T23:36:23.615Z,62.11
2022-12-28T23:38:52.010Z,62.27
2022-12-28T23:41:37.815Z,62.70
2022-12-28T23:44:06.109Z,62.49
2022-12-28T23:46:34.336Z,63.04
2022-12-28T23:49:04.746Z,62.58
2022-12-28T23:51:32.927Z,62.31
2022-12-28T23:54:01.232Z,62.07
2022-12-28T23:56:29.570Z,61.53
2022-12-28T23:58:57.943Z,61.55
